Fraserburg Airport


Codes: FAFR/
Name: Fraserburg Airport
City: Fraseburg
Country: South Africa
Elevation: 4180 ft.

Photos at Fraserburg Airport


   Photos courtesy of SpottingLog. You can add your own sightings and photos by signing up for a free trial today.



No photos found.

Weather at Fraserburg Airport


Time (UTC)DescriptionTempratureWindCloud coverageVisibilityPressureHumidity
21-Feb-2024 03:00Clear Sky19°C7 mph, S0%10000m1013hPa46%
21-Feb-2024 06:00Clear Sky20°C7 mph, S0%10000m1013hPa41%
21-Feb-2024 09:00Clear Sky25°C7 mph, SW0%10000m1012hPa26%
21-Feb-2024 12:00Clear Sky33°C16 mph, W0%10000m1008hPa9%
21-Feb-2024 15:00Clear Sky31°C22 mph, W0%10000m1008hPa10%
21-Feb-2024 18:00Clear Sky23°C11 mph, S0%10000m1011hPa36%
21-Feb-2024 21:00Clear Sky18°C13 mph, SE1%10000m1014hPa63%
22-Feb-2024 00:00Clear Sky15°C11 mph, SE1%10000m1013hPa77%
22-Feb-2024 03:00Clear Sky14°C9 mph, SE0%10000m1013hPa81%
22-Feb-2024 06:00Clear Sky16°C7 mph, SE2%10000m1013hPa65%
22-Feb-2024 09:00Clear Sky23°C2 mph, NW2%10000m1011hPa29%
22-Feb-2024 12:00Clear Sky30°C11 mph, W2%10000m1007hPa12%
22-Feb-2024 15:00Broken Clouds31°C13 mph, W52%10000m1006hPa10%
22-Feb-2024 18:00Scattered Clouds24°C9 mph, S45%10000m1009hPa25%
22-Feb-2024 21:00Few Clouds19°C13 mph, S16%10000m1011hPa53%
23-Feb-2024 00:00Broken Clouds15°C13 mph, SE57%10000m1011hPa68%
23-Feb-2024 03:00Clear Sky14°C7 mph, SE3%10000m1011hPa76%
23-Feb-2024 06:00Clear Sky17°C7 mph, SE2%10000m1011hPa58%
23-Feb-2024 09:00Clear Sky27°C11 mph, N0%10000m1009hPa18%
23-Feb-2024 12:00Clear Sky32°C20 mph, NW0%10000m1005hPa5%
23-Feb-2024 15:00Clear Sky33°C25 mph, NW6%10000m1003hPa4%
23-Feb-2024 18:00Broken Clouds26°C13 mph, W53%10000m1005hPa6%
23-Feb-2024 21:00Broken Clouds22°C9 mph, SW71%10000m1008hPa19%
24-Feb-2024 00:00Scattered Clouds19°C7 mph, W44%10000m1008hPa17%
24-Feb-2024 03:00Clear Sky16°C9 mph, NW2%10000m1010hPa17%
24-Feb-2024 06:00Clear Sky19°C7 mph, W4%10000m1011hPa11%
24-Feb-2024 09:00Clear Sky27°C18 mph, NW2%10000m1010hPa5%
24-Feb-2024 12:00Clear Sky30°C22 mph, NW2%10000m1008hPa4%
24-Feb-2024 15:00Overcast Clouds28°C22 mph, W88%10000m1009hPa9%
24-Feb-2024 18:00Overcast Clouds20°C18 mph, SW88%10000m1014hPa33%
24-Feb-2024 21:00Broken Clouds18°C9 mph, SW81%10000m1016hPa44%
25-Feb-2024 00:00Overcast Clouds16°C11 mph, S90%10000m1016hPa52%
25-Feb-2024 03:00Overcast Clouds15°C11 mph, SE100%10000m1017hPa69%
25-Feb-2024 06:00Overcast Clouds15°C9 mph, SE100%10000m1019hPa62%
25-Feb-2024 09:00Overcast Clouds21°C4 mph, S99%10000m1019hPa35%
25-Feb-2024 12:00Broken Clouds27°C4 mph, S84%10000m1016hPa16%
25-Feb-2024 15:00Few Clouds28°C16 mph, SE18%10000m1015hPa18%
25-Feb-2024 18:00Scattered Clouds21°C22 mph, SE26%10000m1018hPa33%
25-Feb-2024 21:00Clear Sky16°C18 mph, SE5%10000m1020hPa51%
26-Feb-2024 00:00Clear Sky14°C16 mph, SE3%10000m1020hPa68%